sensor_id;sensor_type;location;lat;lon;timestamp;pressure;altitude;pressure_sealevel;temperature;humidity
61537;BME280;48695;53.480;-6.300;2023-04-09T00:00:36;101401.81;;;12.43;52.39
61537;BME280;48695;53.480;-6.300;2023-04-09T00:03:02;101406.28;;;12.38;52.30
61537;BME280;48695;53.480;-6.300;2023-04-09T00:05:27;101404.59;;;12.34;52.71
61537;BME280;48695;53.480;-6.300;2023-04-09T00:07:53;101407.28;;;12.31;52.26
61537;BME280;48695;53.480;-6.300;2023-04-09T00:10:18;101400.41;;;12.25;52.52
61537;BME280;48695;53.480;-6.300;2023-04-09T00:12:44;101397.03;;;12.18;52.64
61537;BME280;48695;53.480;-6.300;2023-04-09T00:15:10;101401.38;;;12.19;51.92
61537;BME280;48695;53.480;-6.300;2023-04-09T00:17:35;101390.09;;;12.16;52.38
61537;BME280;48695;53.480;-6.300;2023-04-09T00:20:01;101358.97;;;11.99;52.15
61537;BME280;48695;53.480;-6.300;2023-04-09T00:22:26;101380.59;;;12.10;52.24
61537;BME280;48695;53.480;-6.300;2023-04-09T00:24:52;101345.06;;;11.97;52.32
61537;BME280;48695;53.480;-6.300;2023-04-09T00:27:17;101345.06;;;11.95;52.55
61537;BME280;48695;53.480;-6.300;2023-04-09T00:29:42;101354.56;;;12.01;52.51
61537;BME280;48695;53.480;-6.300;2023-04-09T00:32:08;101364.19;;;12.01;52.69
61537;BME280;48695;53.480;-6.300;2023-04-09T00:34:33;101363.31;;;12.00;52.32
61537;BME280;48695;53.480;-6.300;2023-04-09T00:36:59;101352.94;;;11.97;52.67
61537;BME280;48695;53.480;-6.300;2023-04-09T00:39:25;101359.91;;;11.95;53.00
61537;BME280;48695;53.480;-6.300;2023-04-09T00:41:55;101357.31;;;11.95;52.64
61537;BME280;48695;53.480;-6.300;2023-04-09T00:44:21;101367.84;;;11.90;53.26
61537;BME280;48695;53.480;-6.300;2023-04-09T00:46:47;101361.75;;;11.90;52.77
61537;BME280;48695;53.480;-6.300;2023-04-09T00:49:12;101361.84;;;11.87;53.14
61537;BME280;48695;53.480;-6.300;2023-04-09T00:51:38;101367.06;;;11.87;53.87
61537;BME280;48695;53.480;-6.300;2023-04-09T00:54:03;101367.06;;;11.87;53.34
61537;BME280;48695;53.480;-6.300;2023-04-09T00:56:29;101354.91;;;11.83;54.08
61537;BME280;48695;53.480;-6.300;2023-04-09T00:58:54;101354.84;;;11.86;53.78
61537;BME280;48695;53.480;-6.300;2023-04-09T01:01:20;101340.94;;;11.81;54.41
61537;BME280;48695;53.480;-6.300;2023-04-09T01:03:45;101353.19;;;11.82;54.51
61537;BME280;48695;53.480;-6.300;2023-04-09T01:06:15;101336.59;;;11.80;54.92
61537;BME280;48695;53.480;-6.300;2023-04-09T01:08:57;101346.19;;;11.81;53.72
61537;BME280;48695;53.480;-6.300;2023-04-09T01:11:42;101351.41;;;11.81;53.42
61537;BME280;48695;53.480;-6.300;2023-04-09T01:16:57;101335.78;;;11.78;54.58
61537;BME280;48695;53.480;-6.300;2023-04-09T01:22:21;101322.81;;;11.72;54.93
61537;BME280;48695;53.480;-6.300;2023-04-09T01:27:37;101340.28;;;11.71;55.05
61537;BME280;48695;53.480;-6.300;2023-04-09T01:30:08;101318.53;;;11.67;55.42
61537;BME280;48695;53.480;-6.300;2023-04-09T01:32:36;101315.94;;;11.64;55.26
61537;BME280;48695;53.480;-6.300;2023-04-09T01:35:03;101308.09;;;11.64;54.60
61537;BME280;48695;53.480;-6.300;2023-04-09T01:37:29;101305.56;;;11.61;55.41
61537;BME280;48695;53.480;-6.300;2023-04-09T01:39:55;101285.69;;;11.51;55.48
61537;BME280;48695;53.480;-6.300;2023-04-09T01:42:21;101306.41;;;11.60;55.14
61537;BME280;48695;53.480;-6.300;2023-04-09T01:44:46;101302.09;;;11.59;55.63
61537;BME280;48695;53.480;-6.300;2023-04-09T01:47:13;101294.22;;;11.59;55.57
61537;BME280;48695;53.480;-6.300;2023-04-09T01:49:40;101287.28;;;11.58;55.48
61537;BME280;48695;53.480;-6.300;2023-04-09T01:52:06;101282.06;;;11.58;55.63
61537;BME280;48695;53.480;-6.300;2023-04-09T01:54:31;101272.47;;;11.57;55.97
61537;BME280;48695;53.480;-6.300;2023-04-09T01:56:57;101273.31;;;11.59;54.95
61537;BME280;48695;53.480;-6.300;2023-04-09T01:59:23;101268.06;;;11.59;55.96
61537;BME280;48695;53.480;-6.300;2023-04-09T02:02:00;101254.09;;;11.60;55.57
61537;BME280;48695;53.480;-6.300;2023-04-09T02:04:37;101262.84;;;11.59;55.49
61537;BME280;48695;53.480;-6.300;2023-04-09T02:09:56;101248.94;;;11.57;55.33
61537;BME280;48695;53.480;-6.300;2023-04-09T02:12:24;101221.06;;;11.56;55.68
61537;BME280;48695;53.480;-6.300;2023-04-09T02:14:50;101191.66;;;11.43;55.71
61537;BME280;48695;53.480;-6.300;2023-04-09T02:17:16;101215.84;;;11.56;55.66
61537;BME280;48695;53.480;-6.300;2023-04-09T02:19:44;101221.06;;;11.56;56.01
61537;BME280;48695;53.480;-6.300;2023-04-09T02:22:10;101224.59;;;11.54;55.52
61537;BME280;48695;53.480;-6.300;2023-04-09T02:24:36;101234.97;;;11.58;55.66
61537;BME280;48695;53.480;-6.300;2023-04-09T02:27:02;101238.47;;;11.57;55.38
61537;BME280;48695;53.480;-6.300;2023-04-09T02:29:28;101242.00;;;11.56;56.08
61537;BME280;48695;53.480;-6.300;2023-04-09T02:31:53;101245.47;;;11.55;56.65
61537;BME280;48695;53.480;-6.300;2023-04-09T02:34:19;101244.59;;;11.56;55.70
61537;BME280;48695;53.480;-6.300;2023-04-09T02:36:44;101241.13;;;11.56;56.06
61537;BME280;48695;53.480;-6.300;2023-04-09T02:39:10;101240.25;;;11.55;56.00
61537;BME280;48695;53.480;-6.300;2023-04-09T02:41:35;101235.00;;;11.55;56.08
61537;BME280;48695;53.480;-6.300;2023-04-09T02:44:01;101227.19;;;11.54;56.26
61537;BME280;48695;53.480;-6.300;2023-04-09T02:46:26;101217.69;;;11.51;56.83
61537;BME280;48695;53.480;-6.300;2023-04-09T02:48:52;101220.25;;;11.53;56.96
61537;BME280;48695;53.480;-6.300;2023-04-09T02:51:17;101233.28;;;11.54;56.10
61537;BME280;48695;53.480;-6.300;2023-04-09T02:53:42;101220.22;;;11.54;57.37
61537;BME280;48695;53.480;-6.300;2023-04-09T02:56:09;101210.66;;;11.53;57.22
61537;BME280;48695;53.480;-6.300;2023-04-09T02:58:35;101200.19;;;11.53;56.77
61537;BME280;48695;53.480;-6.300;2023-04-09T03:01:00;101198.47;;;11.52;57.69
61537;BME280;48695;53.480;-6.300;2023-04-09T03:03:26;101205.41;;;11.53;56.55
61537;BME280;48695;53.480;-6.300;2023-04-09T03:05:51;101170.03;;;11.35;57.57
61537;BME280;48695;53.480;-6.300;2023-04-09T03:08:16;101189.72;;;11.53;57.19
61537;BME280;48695;53.480;-6.300;2023-04-09T03:10:42;101191.47;;;11.53;57.40
61537;BME280;48695;53.480;-6.300;2023-04-09T03:13:07;101182.78;;;11.52;57.09
61537;BME280;48695;53.480;-6.300;2023-04-09T03:15:33;101186.28;;;11.51;57.61
61537;BME280;48695;53.480;-6.300;2023-04-09T03:17:58;101168.94;;;11.47;57.29
61537;BME280;48695;53.480;-6.300;2023-04-09T03:20:23;101181.06;;;11.51;57.65
61537;BME280;48695;53.480;-6.300;2023-04-09T03:22:49;101175.81;;;11.51;57.66
61537;BME280;48695;53.480;-6.300;2023-04-09T03:25:14;101163.63;;;11.50;58.01
61537;BME280;48695;53.480;-6.300;2023-04-09T03:27:40;101168.00;;;11.50;57.40
61537;BME280;48695;53.480;-6.300;2023-04-09T03:30:06;101179.31;;;11.50;57.90
61537;BME280;48695;53.480;-6.300;2023-04-09T03:32:31;101164.50;;;11.51;57.35
61537;BME280;48695;53.480;-6.300;2023-04-09T03:34:56;101158.38;;;11.50;57.03
61537;BME280;48695;53.480;-6.300;2023-04-09T03:37:22;101165.38;;;11.50;58.11
61537;BME280;48695;53.480;-6.300;2023-04-09T03:39:47;101159.28;;;11.49;57.88
61537;BME280;48695;53.480;-6.300;2023-04-09T03:42:13;101161.03;;;11.49;57.62
61537;BME280;48695;53.480;-6.300;2023-04-09T03:44:38;101138.66;;;11.35;57.48
61537;BME280;48695;53.480;-6.300;2023-04-09T03:47:03;101155.00;;;11.47;58.08
61537;BME280;48695;53.480;-6.300;2023-04-09T03:49:29;101167.16;;;11.48;57.91
61537;BME280;48695;53.480;-6.300;2023-04-09T03:51:55;101153.22;;;11.47;57.89
61537;BME280;48695;53.480;-6.300;2023-04-09T03:54:20;101161.03;;;11.49;57.60
61537;BME280;48695;53.480;-6.300;2023-04-09T03:56:45;101141.09;;;11.43;58.10
61537;BME280;48695;53.480;-6.300;2023-04-09T03:59:11;101154.94;;;11.48;57.90
61537;BME280;48695;53.480;-6.300;2023-04-09T04:01:36;101148.00;;;11.47;58.25
61537;BME280;48695;53.480;-6.300;2023-04-09T04:04:02;101140.19;;;11.46;58.33
61537;BME280;48695;53.480;-6.300;2023-04-09T04:06:27;101138.44;;;11.46;58.56
61537;BME280;48695;53.480;-6.300;2023-04-09T04:08:52;101142.78;;;11.47;58.54
61537;BME280;48695;53.480;-6.300;2023-04-09T04:11:18;101144.50;;;11.48;58.80
61537;BME280;48695;53.480;-6.300;2023-04-09T04:13:43;101146.22;;;11.49;58.58
61537;BME280;48695;53.480;-6.300;2023-04-09T04:16:09;101134.03;;;11.48;58.64
61537;BME280;48695;53.480;-6.300;2023-04-09T04:18:35;101127.06;;;11.47;58.53
61537;BME280;48695;53.480;-6.300;2023-04-09T04:21:00;101127.06;;;11.47;58.76
61537;BME280;48695;53.480;-6.300;2023-04-09T04:23:26;101123.63;;;11.45;57.69
61537;BME280;48695;53.480;-6.300;2023-04-09T04:25:51;101120.94;;;11.48;58.33
61537;BME280;48695;53.480;-6.300;2023-04-09T04:28:24;101120.94;;;11.48;58.95
61537;BME280;48695;53.480;-6.300;2023-04-09T04:30:50;101104.38;;;11.49;58.39
61537;BME280;48695;53.480;-6.300;2023-04-09T04:33:15;101106.97;;;11.49;58.37
61537;BME280;48695;53.480;-6.300;2023-04-09T04:35:41;101096.50;;;11.49;58.86
61537;BME280;48695;53.480;-6.300;2023-04-09T04:38:06;101101.75;;;11.49;58.50
61537;BME280;48695;53.480;-6.300;2023-04-09T04:40:31;101087.81;;;11.49;59.01
61537;BME280;48695;53.480;-6.300;2023-04-09T04:42:57;101086.94;;;11.48;59.13
61537;BME280;48695;53.480;-6.300;2023-04-09T04:45:22;101082.63;;;11.47;58.80
61537;BME280;48695;53.480;-6.300;2023-04-09T04:47:48;101072.16;;;11.47;59.13
61537;BME280;48695;53.480;-6.300;2023-04-09T04:50:13;101066.88;;;11.49;58.37
61537;BME280;48695;53.480;-6.300;2023-04-09T04:52:39;101063.47;;;11.45;59.04
61537;BME280;48695;53.480;-6.300;2023-04-09T04:55:05;101074.78;;;11.47;58.56
61537;BME280;48695;53.480;-6.300;2023-04-09T04:57:31;101053.00;;;11.47;59.03
61537;BME280;48695;53.480;-6.300;2023-04-09T04:59:56;101061.69;;;11.47;57.98
61537;BME280;48695;53.480;-6.300;2023-04-09T05:02:21;101052.13;;;11.46;59.38
61537;BME280;48695;53.480;-6.300;2023-04-09T05:04:47;101048.69;;;11.44;59.15
61537;BME280;48695;53.480;-6.300;2023-04-09T05:07:12;101035.69;;;11.39;58.08
61537;BME280;48695;53.480;-6.300;2023-04-09T05:09:38;101039.06;;;11.44;59.18
61537;BME280;48695;53.480;-6.300;2023-04-09T05:12:03;101038.22;;;11.44;59.01
61537;BME280;48695;53.480;-6.300;2023-04-09T05:14:28;101041.69;;;11.44;58.80
61537;BME280;48695;53.480;-6.300;2023-04-09T05:16:54;101032.97;;;11.44;58.81
61537;BME280;48695;53.480;-6.300;2023-04-09T05:19:19;101019.06;;;11.43;59.33
61537;BME280;48695;53.480;-6.300;2023-04-09T05:21:45;101024.31;;;11.42;58.77
61537;BME280;48695;53.480;-6.300;2023-04-09T05:24:10;101033.94;;;11.41;58.94
61537;BME280;48695;53.480;-6.300;2023-04-09T05:26:36;101023.47;;;11.40;59.67
61537;BME280;48695;53.480;-6.300;2023-04-09T05:29:01;101019.13;;;11.40;58.74
61537;BME280;48695;53.480;-6.300;2023-04-09T05:31:27;101020.00;;;11.41;59.75
61537;BME280;48695;53.480;-6.300;2023-04-09T05:33:52;101026.09;;;11.40;59.87
61537;BME280;48695;53.480;-6.300;2023-04-09T05:36:18;101025.22;;;11.39;59.93
61537;BME280;48695;53.480;-6.300;2023-04-09T05:38:46;101012.16;;;11.41;59.72
61537;BME280;48695;53.480;-6.300;2023-04-09T05:41:12;101008.69;;;11.39;60.68
61537;BME280;48695;53.480;-6.300;2023-04-09T05:43:37;101019.19;;;11.37;60.45
61537;BME280;48695;53.480;-6.300;2023-04-09T05:46:03;101025.31;;;11.36;60.27
61537;BME280;48695;53.480;-6.300;2023-04-09T05:48:28;101028.84;;;11.34;60.57
61537;BME280;48695;53.480;-6.300;2023-04-09T05:50:54;101024.47;;;11.34;60.45
61537;BME280;48695;53.480;-6.300;2023-04-09T05:53:20;101022.78;;;11.32;61.29
61537;BME280;48695;53.480;-6.300;2023-04-09T05:55:46;101024.50;;;11.33;60.82
61537;BME280;48695;53.480;-6.300;2023-04-09T05:58:13;101024.50;;;11.33;61.18
61537;BME280;48695;53.480;-6.300;2023-04-09T06:00:40;101034.09;;;11.32;61.43
61537;BME280;48695;53.480;-6.300;2023-04-09T06:03:05;101039.34;;;11.32;61.26
61537;BME280;48695;53.480;-6.300;2023-04-09T06:05:31;101037.59;;;11.33;61.44
61537;BME280;48695;53.480;-6.300;2023-04-09T06:07:56;101043.72;;;11.32;61.28
61537;BME280;48695;53.480;-6.300;2023-04-09T06:10:23;101059.34;;;11.33;61.43
61537;BME280;48695;53.480;-6.300;2023-04-09T06:12:48;101053.28;;;11.33;61.63
61537;BME280;48695;53.480;-6.300;2023-04-09T06:15:14;101009.31;;;11.08;61.97
61537;BME280;48695;53.480;-6.300;2023-04-09T06:17:39;101057.69;;;11.31;61.99
61537;BME280;48695;53.480;-6.300;2023-04-09T06:20:05;101042.94;;;11.27;62.14
61537;BME280;48695;53.480;-6.300;2023-04-09T06:22:31;101051.50;;;11.33;62.05
61537;BME280;48695;53.480;-6.300;2023-04-09T06:24:56;101048.00;;;11.34;62.37
61537;BME280;48695;53.480;-6.300;2023-04-09T06:27:22;101040.16;;;11.36;62.61
61537;BME280;48695;53.480;-6.300;2023-04-09T06:29:47;101040.97;;;11.38;62.19
61537;BME280;48695;53.480;-6.300;2023-04-09T06:32:13;101027.88;;;11.38;61.90
61537;BME280;48695;53.480;-6.300;2023-04-09T06:34:38;101045.16;;;11.45;61.54
61537;BME280;48695;53.480;-6.300;2023-04-09T06:37:03;101046.06;;;11.46;61.76
61537;BME280;48695;53.480;-6.300;2023-04-09T06:39:29;101029.41;;;11.48;62.58
61537;BME280;48695;53.480;-6.300;2023-04-09T06:41:55;101024.25;;;11.45;62.33
61537;BME280;48695;53.480;-6.300;2023-04-09T06:44:20;101034.59;;;11.51;62.77
61537;BME280;48695;53.480;-6.300;2023-04-09T06:46:46;101017.06;;;11.56;62.32
61537;BME280;48695;53.480;-6.300;2023-04-09T06:49:11;101018.72;;;11.59;62.03
61537;BME280;48695;53.480;-6.300;2023-04-09T06:51:37;101009.97;;;11.61;62.11
61537;BME280;48695;53.480;-6.300;2023-04-09T06:54:02;101005.59;;;11.62;61.94
61537;BME280;48695;53.480;-6.300;2023-04-09T06:56:27;100990.59;;;11.68;61.43
61537;BME280;48695;53.480;-6.300;2023-04-09T06:58:53;100981.19;;;11.61;61.71
61537;BME280;48695;53.480;-6.300;2023-04-09T07:01:19;100988.81;;;11.70;61.22
61537;BME280;48695;53.480;-6.300;2023-04-09T07:03:45;100968.03;;;11.64;61.83
61537;BME280;48695;53.480;-6.300;2023-04-09T07:06:10;100979.16;;;11.74;62.00
61537;BME280;48695;53.480;-6.300;2023-04-09T07:08:36;100989.50;;;11.79;61.88
61537;BME280;48695;53.480;-6.300;2023-04-09T07:11:01;100978.13;;;11.80;61.70
61537;BME280;48695;53.480;-6.300;2023-04-09T07:13:27;100955.63;;;11.73;61.61
61537;BME280;48695;53.480;-6.300;2023-04-09T07:15:53;100973.63;;;11.88;60.93
61537;BME280;48695;53.480;-6.300;2023-04-09T07:18:18;100972.72;;;11.89;61.61
61537;BME280;48695;53.480;-6.300;2023-04-09T07:20:44;100956.97;;;11.92;61.87
61537;BME280;48695;53.480;-6.300;2023-04-09T07:23:10;100953.50;;;11.90;61.12
61537;BME280;48695;53.480;-6.300;2023-04-09T07:25:35;100952.47;;;11.97;61.48
61537;BME280;48695;53.480;-6.300;2023-04-09T07:28:01;100941.00;;;12.01;61.52
61537;BME280;48695;53.480;-6.300;2023-04-09T07:30:27;100933.09;;;12.04;60.96
61537;BME280;48695;53.480;-6.300;2023-04-09T07:32:52;100919.41;;;11.93;61.47
61537;BME280;48695;53.480;-6.300;2023-04-09T07:35:18;100944.31;;;12.09;61.58
61537;BME280;48695;53.480;-6.300;2023-04-09T07:37:43;100928.53;;;12.12;61.38
61537;BME280;48695;53.480;-6.300;2023-04-09T07:40:09;100933.66;;;12.17;60.79
61537;BME280;48695;53.480;-6.300;2023-04-09T07:42:38;100933.53;;;12.22;60.97
61537;BME280;48695;53.480;-6.300;2023-04-09T07:45:05;100924.78;;;12.23;61.37
61537;BME280;48695;53.480;-6.300;2023-04-09T07:47:31;100908.34;;;12.16;61.37
61537;BME280;48695;53.480;-6.300;2023-04-09T07:49:57;100935.09;;;12.29;61.25
61537;BME280;48695;53.480;-6.300;2023-04-09T07:52:22;100902.72;;;12.31;61.39
61537;BME280;48695;53.480;-6.300;2023-04-09T07:54:48;100900.06;;;12.33;61.57
61537;BME280;48695;53.480;-6.300;2023-04-09T07:57:13;100906.97;;;12.37;61.26
61537;BME280;48695;53.480;-6.300;2023-04-09T07:59:39;100903.34;;;12.41;61.29
61537;BME280;48695;53.480;-6.300;2023-04-09T08:02:04;100911.03;;;12.47;61.38
61537;BME280;48695;53.480;-6.300;2023-04-09T08:04:30;100913.50;;;12.52;61.39
61537;BME280;48695;53.480;-6.300;2023-04-09T08:06:55;100921.22;;;12.58;61.21
61537;BME280;48695;53.480;-6.300;2023-04-09T08:09:21;100906.25;;;12.61;62.01
61537;BME280;48695;53.480;-6.300;2023-04-09T08:11:47;100893.88;;;12.66;61.75
61537;BME280;48695;53.480;-6.300;2023-04-09T08:14:14;100910.31;;;12.73;61.55
61537;BME280;48695;53.480;-6.300;2023-04-09T08:16:41;100910.91;;;12.83;61.22
61537;BME280;48695;53.480;-6.300;2023-04-09T08:19:08;100911.59;;;12.89;61.69
61537;BME280;48695;53.480;-6.300;2023-04-09T08:21:36;100919.16;;;13.00;61.06
61537;BME280;48695;53.480;-6.300;2023-04-09T08:24:01;100926.88;;;13.05;60.85
61537;BME280;48695;53.480;-6.300;2023-04-09T08:26:29;100916.88;;;13.17;60.77
61537;BME280;48695;53.480;-6.300;2023-04-09T08:28:55;100912.34;;;13.24;60.70
61537;BME280;48695;53.480;-6.300;2023-04-09T08:31:20;100906.06;;;13.30;60.54
61537;BME280;48695;53.480;-6.300;2023-04-09T08:33:46;100900.63;;;13.36;60.29
61537;BME280;48695;53.480;-6.300;2023-04-09T08:36:11;100903.09;;;13.40;60.34
61537;BME280;48695;53.480;-6.300;2023-04-09T08:38:37;100899.47;;;13.44;59.95
61537;BME280;48695;53.480;-6.300;2023-04-09T08:41:03;100900.34;;;13.45;60.28
61537;BME280;48695;53.480;-6.300;2023-04-09T08:43:29;100902.84;;;13.48;60.35
61537;BME280;48695;53.480;-6.300;2023-04-09T08:45:56;100910.44;;;13.57;60.38
61537;BME280;48695;53.480;-6.300;2023-04-09T08:48:23;100901.34;;;13.67;60.19
61537;BME280;48695;53.480;-6.300;2023-04-09T08:50:49;100894.25;;;13.71;59.82
61537;BME280;48695;53.480;-6.300;2023-04-09T08:53:15;100900.56;;;13.92;59.23
61537;BME280;48695;53.480;-6.300;2023-04-09T08:55:44;100904.59;;;14.02;58.80
61537;BME280;48695;53.480;-6.300;2023-04-09T08:58:09;100893.09;;;14.06;58.84
61537;BME280;48695;53.480;-6.300;2023-04-09T09:00:36;100902.47;;;14.13;58.79
61537;BME280;48695;53.480;-6.300;2023-04-09T09:03:11;100884.53;;;14.26;58.46
61537;BME280;48695;53.480;-6.300;2023-04-09T09:05:44;100879.81;;;14.36;58.04
61537;BME280;48695;53.480;-6.300;2023-04-09T09:08:22;100881.09;;;14.49;57.91
61537;BME280;48695;53.480;-6.300;2023-04-09T09:10:47;100876.44;;;14.57;57.70
61537;BME280;48695;53.480;-6.300;2023-04-09T09:13:21;100851.78;;;14.60;57.68
61537;BME280;48695;53.480;-6.300;2023-04-09T09:15:48;100869.44;;;14.79;57.12
61537;BME280;48695;53.480;-6.300;2023-04-09T09:18:17;100868.31;;;14.87;56.71
61537;BME280;48695;53.480;-6.300;2023-04-09T09:20:43;100850.88;;;14.84;56.40
61537;BME280;48695;53.480;-6.300;2023-04-09T09:23:09;100859.97;;;14.99;56.05
61537;BME280;48695;53.480;-6.300;2023-04-09T09:25:39;100864.97;;;15.05;55.86
61537;BME280;48695;53.480;-6.300;2023-04-09T09:28:09;100863.16;;;15.07;56.03
61537;BME280;48695;53.480;-6.300;2023-04-09T09:30:36;100859.63;;;15.08;55.92
61537;BME280;48695;53.480;-6.300;2023-04-09T09:33:05;100867.22;;;15.16;55.91
61537;BME280;48695;53.480;-6.300;2023-04-09T09:35:45;100860.72;;;15.24;56.33
61537;BME280;48695;53.480;-6.300;2023-04-09T09:38:12;100865.97;;;15.24;55.20
61537;BME280;48695;53.480;-6.300;2023-04-09T09:40:38;100865.88;;;15.27;55.46
61537;BME280;48695;53.480;-6.300;2023-04-09T09:43:03;100859.56;;;15.31;55.36
61537;BME280;48695;53.480;-6.300;2023-04-09T09:45:29;100850.19;;;15.24;54.70
61537;BME280;48695;53.480;-6.300;2023-04-09T09:47:54;100870.63;;;15.40;54.52
61537;BME280;48695;53.480;-6.300;2023-04-09T09:50:23;100865.25;;;15.43;54.59
61537;BME280;48695;53.480;-6.300;2023-04-09T09:53:01;100861.59;;;15.47;54.98
61537;BME280;48695;53.480;-6.300;2023-04-09T09:55:30;100865.84;;;15.49;54.60
61537;BME280;48695;53.480;-6.300;2023-04-09T09:57:57;100857.91;;;15.51;54.58
61537;BME280;48695;53.480;-6.300;2023-04-09T10:00:27;100846.47;;;15.52;54.42
61537;BME280;48695;53.480;-6.300;2023-04-09T10:02:56;100840.88;;;15.60;54.20
61537;BME280;48695;53.480;-6.300;2023-04-09T10:05:23;100817.75;;;15.46;54.41
61537;BME280;48695;53.480;-6.300;2023-04-09T10:07:54;100844.22;;;15.65;54.27
61537;BME280;48695;53.480;-6.300;2023-04-09T10:10:21;100850.22;;;15.68;54.37
61537;BME280;48695;53.480;-6.300;2023-04-09T10:12:47;100844.94;;;15.68;54.16
61537;BME280;48695;53.480;-6.300;2023-04-09T10:15:13;100834.41;;;15.68;53.55
61537;BME280;48695;53.480;-6.300;2023-04-09T10:17:39;100819.47;;;15.69;53.21
61537;BME280;48695;53.480;-6.300;2023-04-09T10:20:10;100799.47;;;15.65;52.82
61537;BME280;48695;53.480;-6.300;2023-04-09T10:22:37;100816.91;;;15.67;53.07
61537;BME280;48695;53.480;-6.300;2023-04-09T10:25:04;100810.78;;;15.67;52.88
61537;BME280;48695;53.480;-6.300;2023-04-09T10:27:30;100790.34;;;15.51;53.30
61537;BME280;48695;53.480;-6.300;2023-04-09T10:29:56;100803.91;;;15.63;53.82
61537;BME280;48695;53.480;-6.300;2023-04-09T10:32:24;100791.72;;;15.60;54.23
61537;BME280;48695;53.480;-6.300;2023-04-09T10:34:55;100802.16;;;15.63;53.57
61537;BME280;48695;53.480;-6.300;2023-04-09T10:37:25;100781.56;;;15.51;53.85
61537;BME280;48695;53.480;-6.300;2023-04-09T10:39:51;100777.84;;;15.56;53.62
61537;BME280;48695;53.480;-6.300;2023-04-09T10:42:18;100777.13;;;15.53;54.29
61537;BME280;48695;53.480;-6.300;2023-04-09T10:45:11;100768.28;;;15.54;53.80
61537;BME280;48695;53.480;-6.300;2023-04-09T10:47:40;100756.31;;;15.47;54.66
61537;BME280;48695;53.480;-6.300;2023-04-09T10:50:36;100770.16;;;15.52;53.76
61537;BME280;48695;53.480;-6.300;2023-04-09T10:53:03;100765.13;;;15.46;54.21
61537;BME280;48695;53.480;-6.300;2023-04-09T10:55:39;100760.00;;;15.43;53.70
61537;BME280;48695;53.480;-6.300;2023-04-09T10:58:09;100741.03;;;15.35;54.35
61537;BME280;48695;53.480;-6.300;2023-04-09T11:00:42;100755.38;;;15.27;54.60
61537;BME280;48695;53.480;-6.300;2023-04-09T11:05:51;100714.94;;;15.08;54.82
61537;BME280;48695;53.480;-6.300;2023-04-09T11:08:17;100708.19;;;15.02;55.35
61537;BME280;48695;53.480;-6.300;2023-04-09T11:10:43;100731.00;;;15.02;55.28
61537;BME280;48695;53.480;-6.300;2023-04-09T11:13:13;100719.66;;;15.00;55.98
61537;BME280;48695;53.480;-6.300;2023-04-09T11:15:39;100728.72;;;14.93;55.82
61537;BME280;48695;53.480;-6.300;2023-04-09T11:18:05;100732.94;;;14.97;56.21
61537;BME280;48695;53.480;-6.300;2023-04-09T11:20:38;100726.88;;;14.95;56.29
61537;BME280;48695;53.480;-6.300;2023-04-09T11:23:04;100729.41;;;14.98;56.57
61537;BME280;48695;53.480;-6.300;2023-04-09T11:25:31;100724.91;;;15.00;56.53
61537;BME280;48695;53.480;-6.300;2023-04-09T11:27:57;100704.13;;;14.94;56.67
61537;BME280;48695;53.480;-6.300;2023-04-09T11:30:23;100724.91;;;15.00;56.23
61537;BME280;48695;53.480;-6.300;2023-04-09T11:32:48;100711.78;;;15.00;56.82
61537;BME280;48695;53.480;-6.300;2023-04-09T11:35:16;100723.09;;;15.02;56.39
61537;BME280;48695;53.480;-6.300;2023-04-09T11:37:42;100721.13;;;15.07;55.85
61537;BME280;48695;53.480;-6.300;2023-04-09T11:40:14;100716.72;;;15.08;56.29
61537;BME280;48695;53.480;-6.300;2023-04-09T11:42:41;100714.28;;;15.03;56.08
61537;BME280;48695;53.480;-6.300;2023-04-09T11:45:08;100703.09;;;14.98;56.00
61537;BME280;48695;53.480;-6.300;2023-04-09T11:47:34;100710.03;;;15.00;56.10
61537;BME280;48695;53.480;-6.300;2023-04-09T11:49:59;100712.31;;;15.08;55.71
61537;BME280;48695;53.480;-6.300;2023-04-09T11:52:26;100698.59;;;15.01;55.83
61537;BME280;48695;53.480;-6.300;2023-04-09T11:54:52;100712.59;;;15.02;55.82
61537;BME280;48695;53.480;-6.300;2023-04-09T11:57:17;100718.59;;;15.05;55.99
61537;BME280;48695;53.480;-6.300;2023-04-09T11:59:43;100716.72;;;15.08;56.07
61537;BME280;48695;53.480;-6.300;2023-04-09T12:02:09;100712.44;;;15.05;55.92
61537;BME280;48695;53.480;-6.300;2023-04-09T12:04:34;100708.00;;;15.07;55.73
61537;BME280;48695;53.480;-6.300;2023-04-09T12:07:00;100741.19;;;15.10;55.69
61537;BME280;48695;53.480;-6.300;2023-04-09T12:09:26;100701.69;;;15.11;55.17
61537;BME280;48695;53.480;-6.300;2023-04-09T12:11:51;100696.28;;;15.14;55.30
61537;BME280;48695;53.480;-6.300;2023-04-09T12:14:17;100697.09;;;15.16;55.30
61537;BME280;48695;53.480;-6.300;2023-04-09T12:16:50;100684.06;;;15.13;55.30
61537;BME280;48695;53.480;-6.300;2023-04-09T12:19:15;100704.84;;;15.19;55.16
61537;BME280;48695;53.480;-6.300;2023-04-09T12:21:51;100690.66;;;15.23;55.13
61537;BME280;48695;53.480;-6.300;2023-04-09T12:24:22;100704.66;;;15.24;54.50
61537;BME280;48695;53.480;-6.300;2023-04-09T12:26:49;100698.47;;;15.25;54.32
61537;BME280;48695;53.480;-6.300;2023-04-09T12:29:16;100688.94;;;15.22;54.56
61537;BME280;48695;53.480;-6.300;2023-04-09T12:31:42;100696.75;;;15.24;54.76
61537;BME280;48695;53.480;-6.300;2023-04-09T12:34:07;100668.53;;;15.07;54.26
61537;BME280;48695;53.480;-6.300;2023-04-09T12:36:33;100692.22;;;15.27;54.53
61537;BME280;48695;53.480;-6.300;2023-04-09T12:38:58;100683.41;;;15.28;54.10
61537;BME280;48695;53.480;-6.300;2023-04-09T12:41:24;100672.88;;;15.28;54.41
61537;BME280;48695;53.480;-6.300;2023-04-09T12:43:50;100628.50;;;15.00;53.93
61537;BME280;48695;53.480;-6.300;2023-04-09T12:46:17;100675.41;;;15.31;54.36
61537;BME280;48695;53.480;-6.300;2023-04-09T12:48:42;100665.00;;;15.28;54.81
61537;BME280;48695;53.480;-6.300;2023-04-09T12:51:08;100665.56;;;15.35;54.65